Informes METAR cercanos


LEVC - Manises, Valencia, ESPAÑA
Distance from station: NNE 72km
Actualización: 18/07/2024 09:30
Despejado
Despejado
 Viento del varies
Viento: varies 4 km/h
Temperatura: 26°C
Rocío: 20°C
Humedad: 70%
Barómetro: 1018 hPa
Resumen: Despejado
Visibility: Mas de 10 km
2024/07/18 07:30 LEVC 180730Z VRB02KT CAVOK 26/20 Q1018 NOSIG
LEAL - El Altet, Alicante, ESPAÑA
Distance from station: S 70km
Actualización: 18/07/2024 09:30
Algunas nubes
Algunas nubes
 Viento del varies
Viento: varies 4 km/h
Temperatura: 26°C
Rocío: 20°C
Humedad: 70%
Barómetro: 1018 hPa
Clouds: Algunas nubes
Visibility: 10 km
Cloud details: Algunas nubes 610 m
2024/07/18 07:30 LEAL 180730Z VRB02KT 9999 FEW020 26/20 Q1018 NOSIG
 
LELC - San Javier, Murcia, ESPAÑA
Distance from station: SSO 188km
Actualización: 18/07/2024 09:30
Despejado
Despejado
 Viento del NNE
Viento: NNE 9 km/h
Temperatura: 27°C
Índice de calor: 29°C
Rocío: 22°C
Humedad: 74%
Barómetro: 1018 hPa
Resumen: Despejado
Visibility: Mas de 10 km
2024/07/18 07:30 LELC 180730Z 03005KT 350V070 CAVOK 27/22 Q1018 NOSIG
LEAB - Los Llanos, Albacete, ESPAÑA
Distance from station: O 143km
Actualización: 18/07/2024 09:30
Despejado
Despejado
 Viento del SE
Viento: SE 6 km/h
Temperatura: 26°C
Rocío: 13°C
Humedad: 45%
Barómetro: 1021 hPa
Resumen: Despejado
Visibility: Mas de 10 km
2024/07/18 07:30 LEAB 180730Z 13003KT 080V180 CAVOK 26/13 Q1021 NOSIG